sensor_id;sensor_type;location;lat;lon;timestamp;P1;durP1;ratioP1;P2;durP2;ratioP2
14040;SDS011;7095;51.388;6.196;2022-07-10T00:00:38;9.97;;;2.40;;
14040;SDS011;7095;51.388;6.196;2022-07-10T00:03:07;6.17;;;2.20;;
14040;SDS011;7095;51.388;6.196;2022-07-10T00:05:37;8.30;;;2.30;;
14040;SDS011;7095;51.388;6.196;2022-07-10T00:08:06;8.50;;;2.80;;
14040;SDS011;7095;51.388;6.196;2022-07-10T00:10:34;8.10;;;2.77;;
14040;SDS011;7095;51.388;6.196;2022-07-10T00:13:03;11.67;;;2.63;;
14040;SDS011;7095;51.388;6.196;2022-07-10T00:15:32;10.10;;;2.50;;
14040;SDS011;7095;51.388;6.196;2022-07-10T00:18:01;9.97;;;2.57;;
14040;SDS011;7095;51.388;6.196;2022-07-10T00:20:30;11.27;;;2.90;;
14040;SDS011;7095;51.388;6.196;2022-07-10T00:23:00;10.20;;;2.63;;
14040;SDS011;7095;51.388;6.196;2022-07-10T00:25:29;8.00;;;2.97;;
14040;SDS011;7095;51.388;6.196;2022-07-10T00:27:58;6.87;;;2.43;;
14040;SDS011;7095;51.388;6.196;2022-07-10T00:30:27;11.53;;;2.90;;
14040;SDS011;7095;51.388;6.196;2022-07-10T00:32:55;8.07;;;2.73;;
14040;SDS011;7095;51.388;6.196;2022-07-10T00:35:24;7.77;;;3.03;;
14040;SDS011;7095;51.388;6.196;2022-07-10T00:37:52;7.13;;;2.57;;
14040;SDS011;7095;51.388;6.196;2022-07-10T00:40:22;6.47;;;2.57;;
14040;SDS011;7095;51.388;6.196;2022-07-10T00:42:51;6.10;;;2.50;;
14040;SDS011;7095;51.388;6.196;2022-07-10T00:45:20;11.47;;;3.00;;
14040;SDS011;7095;51.388;6.196;2022-07-10T00:47:48;9.77;;;2.40;;
14040;SDS011;7095;51.388;6.196;2022-07-10T00:50:17;13.17;;;3.17;;
14040;SDS011;7095;51.388;6.196;2022-07-10T00:52:46;8.27;;;2.83;;
14040;SDS011;7095;51.388;6.196;2022-07-10T00:55:14;6.93;;;2.47;;
14040;SDS011;7095;51.388;6.196;2022-07-10T00:57:44;7.60;;;2.60;;
14040;SDS011;7095;51.388;6.196;2022-07-10T01:00:14;9.17;;;2.37;;
14040;SDS011;7095;51.388;6.196;2022-07-10T01:02:43;5.10;;;2.27;;
14040;SDS011;7095;51.388;6.196;2022-07-10T01:05:12;6.60;;;2.37;;
14040;SDS011;7095;51.388;6.196;2022-07-10T01:07:41;9.60;;;3.30;;
14040;SDS011;7095;51.388;6.196;2022-07-10T01:10:10;8.40;;;2.43;;
14040;SDS011;7095;51.388;6.196;2022-07-10T01:12:39;7.60;;;2.70;;
14040;SDS011;7095;51.388;6.196;2022-07-10T01:15:09;5.07;;;2.10;;
14040;SDS011;7095;51.388;6.196;2022-07-10T01:17:38;8.17;;;3.20;;
14040;SDS011;7095;51.388;6.196;2022-07-10T01:20:08;5.60;;;2.30;;
14040;SDS011;7095;51.388;6.196;2022-07-10T01:22:39;5.17;;;2.60;;
14040;SDS011;7095;51.388;6.196;2022-07-10T01:25:08;9.20;;;3.90;;
14040;SDS011;7095;51.388;6.196;2022-07-10T01:27:38;5.77;;;2.30;;
14040;SDS011;7095;51.388;6.196;2022-07-10T01:30:07;10.07;;;2.73;;
14040;SDS011;7095;51.388;6.196;2022-07-10T01:32:37;11.00;;;2.50;;
14040;SDS011;7095;51.388;6.196;2022-07-10T01:35:06;5.90;;;2.87;;
14040;SDS011;7095;51.388;6.196;2022-07-10T01:37:36;7.60;;;2.67;;
14040;SDS011;7095;51.388;6.196;2022-07-10T01:40:09;8.83;;;2.70;;
14040;SDS011;7095;51.388;6.196;2022-07-10T01:42:39;6.50;;;2.37;;
14040;SDS011;7095;51.388;6.196;2022-07-10T01:45:09;6.27;;;2.70;;
14040;SDS011;7095;51.388;6.196;2022-07-10T01:47:38;8.53;;;2.40;;
14040;SDS011;7095;51.388;6.196;2022-07-10T01:50:07;9.10;;;2.87;;
14040;SDS011;7095;51.388;6.196;2022-07-10T01:52:36;11.57;;;2.73;;
14040;SDS011;7095;51.388;6.196;2022-07-10T01:55:05;5.63;;;2.37;;
14040;SDS011;7095;51.388;6.196;2022-07-10T01:57:36;6.70;;;2.80;;
14040;SDS011;7095;51.388;6.196;2022-07-10T02:00:05;7.37;;;2.57;;
14040;SDS011;7095;51.388;6.196;2022-07-10T02:02:38;8.47;;;2.57;;
14040;SDS011;7095;51.388;6.196;2022-07-10T02:05:07;9.93;;;3.00;;
14040;SDS011;7095;51.388;6.196;2022-07-10T02:07:35;6.50;;;2.73;;
14040;SDS011;7095;51.388;6.196;2022-07-10T02:10:04;9.93;;;2.70;;
14040;SDS011;7095;51.388;6.196;2022-07-10T02:12:33;7.23;;;3.07;;
14040;SDS011;7095;51.388;6.196;2022-07-10T02:15:04;5.60;;;2.43;;
14040;SDS011;7095;51.388;6.196;2022-07-10T02:17:33;7.00;;;2.70;;
14040;SDS011;7095;51.388;6.196;2022-07-10T02:20:01;10.77;;;2.77;;
14040;SDS011;7095;51.388;6.196;2022-07-10T02:22:31;7.57;;;2.60;;
14040;SDS011;7095;51.388;6.196;2022-07-10T02:24:59;12.07;;;3.17;;
14040;SDS011;7095;51.388;6.196;2022-07-10T02:27:28;8.70;;;2.60;;
14040;SDS011;7095;51.388;6.196;2022-07-10T02:29:57;9.10;;;2.77;;
14040;SDS011;7095;51.388;6.196;2022-07-10T02:32:27;8.90;;;3.43;;
14040;SDS011;7095;51.388;6.196;2022-07-10T02:34:55;5.90;;;3.00;;
14040;SDS011;7095;51.388;6.196;2022-07-10T02:37:24;8.00;;;2.73;;
14040;SDS011;7095;51.388;6.196;2022-07-10T02:39:53;9.53;;;2.97;;
14040;SDS011;7095;51.388;6.196;2022-07-10T02:42:21;7.47;;;3.50;;
14040;SDS011;7095;51.388;6.196;2022-07-10T02:44:50;7.53;;;3.10;;
14040;SDS011;7095;51.388;6.196;2022-07-10T02:47:18;6.57;;;3.17;;
14040;SDS011;7095;51.388;6.196;2022-07-10T02:49:51;8.70;;;3.20;;
14040;SDS011;7095;51.388;6.196;2022-07-10T02:52:20;8.27;;;3.17;;
14040;SDS011;7095;51.388;6.196;2022-07-10T02:54:48;9.27;;;3.33;;
14040;SDS011;7095;51.388;6.196;2022-07-10T02:57:17;6.00;;;2.93;;
14040;SDS011;7095;51.388;6.196;2022-07-10T02:59:46;7.70;;;3.33;;
14040;SDS011;7095;51.388;6.196;2022-07-10T03:02:14;7.43;;;3.60;;
14040;SDS011;7095;51.388;6.196;2022-07-10T03:04:43;11.20;;;3.70;;
14040;SDS011;7095;51.388;6.196;2022-07-10T03:07:13;9.30;;;2.80;;
14040;SDS011;7095;51.388;6.196;2022-07-10T03:09:42;7.50;;;2.80;;
14040;SDS011;7095;51.388;6.196;2022-07-10T03:12:10;12.97;;;3.40;;
14040;SDS011;7095;51.388;6.196;2022-07-10T03:14:39;6.63;;;3.20;;
14040;SDS011;7095;51.388;6.196;2022-07-10T03:17:08;9.77;;;3.37;;
14040;SDS011;7095;51.388;6.196;2022-07-10T03:19:37;12.27;;;4.13;;
14040;SDS011;7095;51.388;6.196;2022-07-10T03:22:05;5.77;;;3.10;;
14040;SDS011;7095;51.388;6.196;2022-07-10T03:24:35;8.53;;;3.10;;
14040;SDS011;7095;51.388;6.196;2022-07-10T03:27:04;10.30;;;3.07;;
14040;SDS011;7095;51.388;6.196;2022-07-10T03:29:33;10.17;;;3.27;;
14040;SDS011;7095;51.388;6.196;2022-07-10T03:32:01;7.83;;;2.70;;
14040;SDS011;7095;51.388;6.196;2022-07-10T03:34:31;8.27;;;2.53;;
14040;SDS011;7095;51.388;6.196;2022-07-10T03:37:00;12.07;;;2.87;;
14040;SDS011;7095;51.388;6.196;2022-07-10T03:39:29;9.30;;;2.47;;
14040;SDS011;7095;51.388;6.196;2022-07-10T03:41:59;8.97;;;3.27;;
14040;SDS011;7095;51.388;6.196;2022-07-10T03:44:30;10.70;;;2.70;;
14040;SDS011;7095;51.388;6.196;2022-07-10T03:46:59;8.33;;;3.10;;
14040;SDS011;7095;51.388;6.196;2022-07-10T03:49:27;9.07;;;3.30;;
14040;SDS011;7095;51.388;6.196;2022-07-10T03:51:58;5.67;;;2.53;;
14040;SDS011;7095;51.388;6.196;2022-07-10T03:54:28;14.37;;;2.57;;
14040;SDS011;7095;51.388;6.196;2022-07-10T03:56:57;7.30;;;2.43;;
14040;SDS011;7095;51.388;6.196;2022-07-10T03:59:45;9.63;;;2.77;;
14040;SDS011;7095;51.388;6.196;2022-07-10T04:02:13;12.10;;;3.10;;
14040;SDS011;7095;51.388;6.196;2022-07-10T04:04:42;7.70;;;2.60;;
14040;SDS011;7095;51.388;6.196;2022-07-10T04:07:10;10.07;;;3.50;;
14040;SDS011;7095;51.388;6.196;2022-07-10T04:09:39;6.53;;;2.97;;
14040;SDS011;7095;51.388;6.196;2022-07-10T04:12:08;8.23;;;3.17;;
14040;SDS011;7095;51.388;6.196;2022-07-10T04:14:36;6.83;;;3.00;;
14040;SDS011;7095;51.388;6.196;2022-07-10T04:17:06;9.57;;;3.90;;
14040;SDS011;7095;51.388;6.196;2022-07-10T04:19:35;12.57;;;3.73;;
14040;SDS011;7095;51.388;6.196;2022-07-10T04:22:04;8.97;;;3.37;;
14040;SDS011;7095;51.388;6.196;2022-07-10T04:24:32;13.13;;;3.70;;
14040;SDS011;7095;51.388;6.196;2022-07-10T04:27:02;6.83;;;2.97;;
14040;SDS011;7095;51.388;6.196;2022-07-10T04:29:34;12.53;;;3.60;;
14040;SDS011;7095;51.388;6.196;2022-07-10T04:32:02;17.17;;;4.23;;
14040;SDS011;7095;51.388;6.196;2022-07-10T04:34:33;9.80;;;3.10;;
14040;SDS011;7095;51.388;6.196;2022-07-10T04:37:01;7.57;;;3.23;;
14040;SDS011;7095;51.388;6.196;2022-07-10T04:39:31;11.17;;;3.57;;
14040;SDS011;7095;51.388;6.196;2022-07-10T04:41:59;10.37;;;3.20;;
14040;SDS011;7095;51.388;6.196;2022-07-10T04:44:27;9.33;;;2.90;;
14040;SDS011;7095;51.388;6.196;2022-07-10T04:46:56;10.57;;;3.33;;
14040;SDS011;7095;51.388;6.196;2022-07-10T04:49:25;10.50;;;3.53;;
14040;SDS011;7095;51.388;6.196;2022-07-10T04:51:56;6.10;;;3.33;;
14040;SDS011;7095;51.388;6.196;2022-07-10T04:54:24;10.53;;;3.93;;
14040;SDS011;7095;51.388;6.196;2022-07-10T04:56:56;8.90;;;3.20;;
14040;SDS011;7095;51.388;6.196;2022-07-10T04:59:24;14.83;;;4.20;;
14040;SDS011;7095;51.388;6.196;2022-07-10T05:01:53;13.13;;;3.83;;
14040;SDS011;7095;51.388;6.196;2022-07-10T05:04:22;9.80;;;3.30;;
14040;SDS011;7095;51.388;6.196;2022-07-10T05:06:50;11.83;;;3.63;;
14040;SDS011;7095;51.388;6.196;2022-07-10T05:09:20;8.23;;;3.93;;
14040;SDS011;7095;51.388;6.196;2022-07-10T05:11:49;8.87;;;3.53;;
14040;SDS011;7095;51.388;6.196;2022-07-10T05:14:17;10.57;;;3.67;;
14040;SDS011;7095;51.388;6.196;2022-07-10T05:16:45;10.50;;;3.37;;
14040;SDS011;7095;51.388;6.196;2022-07-10T05:19:14;9.00;;;3.73;;
14040;SDS011;7095;51.388;6.196;2022-07-10T05:21:42;8.93;;;3.80;;
14040;SDS011;7095;51.388;6.196;2022-07-10T05:24:11;11.73;;;3.40;;
14040;SDS011;7095;51.388;6.196;2022-07-10T05:26:42;10.53;;;3.53;;
14040;SDS011;7095;51.388;6.196;2022-07-10T05:29:11;6.83;;;4.07;;
14040;SDS011;7095;51.388;6.196;2022-07-10T05:31:40;13.37;;;3.90;;
14040;SDS011;7095;51.388;6.196;2022-07-10T05:34:08;7.83;;;3.60;;
14040;SDS011;7095;51.388;6.196;2022-07-10T05:36:37;14.37;;;3.93;;
14040;SDS011;7095;51.388;6.196;2022-07-10T05:39:05;6.60;;;4.07;;
14040;SDS011;7095;51.388;6.196;2022-07-10T05:41:33;8.10;;;3.47;;
14040;SDS011;7095;51.388;6.196;2022-07-10T05:44:04;12.43;;;4.57;;
14040;SDS011;7095;51.388;6.196;2022-07-10T05:46:33;9.33;;;3.67;;
14040;SDS011;7095;51.388;6.196;2022-07-10T05:49:02;7.63;;;3.77;;
14040;SDS011;7095;51.388;6.196;2022-07-10T05:51:31;10.03;;;3.50;;
14040;SDS011;7095;51.388;6.196;2022-07-10T05:54:10;11.37;;;3.93;;
14040;SDS011;7095;51.388;6.196;2022-07-10T05:56:39;8.80;;;3.67;;
14040;SDS011;7095;51.388;6.196;2022-07-10T05:59:09;8.60;;;4.17;;
14040;SDS011;7095;51.388;6.196;2022-07-10T06:01:38;12.00;;;3.70;;
14040;SDS011;7095;51.388;6.196;2022-07-10T06:04:06;12.47;;;3.97;;
14040;SDS011;7095;51.388;6.196;2022-07-10T06:06:35;11.47;;;3.43;;
14040;SDS011;7095;51.388;6.196;2022-07-10T06:09:04;8.13;;;2.97;;
14040;SDS011;7095;51.388;6.196;2022-07-10T06:11:32;7.77;;;3.47;;
14040;SDS011;7095;51.388;6.196;2022-07-10T06:14:01;8.17;;;3.43;;
14040;SDS011;7095;51.388;6.196;2022-07-10T06:16:31;9.70;;;3.50;;
14040;SDS011;7095;51.388;6.196;2022-07-10T06:19:00;8.23;;;3.90;;
14040;SDS011;7095;51.388;6.196;2022-07-10T06:21:28;12.03;;;3.23;;
14040;SDS011;7095;51.388;6.196;2022-07-10T06:23:57;9.80;;;3.63;;
14040;SDS011;7095;51.388;6.196;2022-07-10T06:26:25;9.37;;;3.50;;
14040;SDS011;7095;51.388;6.196;2022-07-10T06:28:54;9.00;;;4.10;;
14040;SDS011;7095;51.388;6.196;2022-07-10T06:31:23;8.13;;;3.40;;
14040;SDS011;7095;51.388;6.196;2022-07-10T06:33:53;11.83;;;4.03;;
14040;SDS011;7095;51.388;6.196;2022-07-10T06:36:21;12.60;;;3.70;;
14040;SDS011;7095;51.388;6.196;2022-07-10T06:38:53;10.00;;;4.07;;
14040;SDS011;7095;51.388;6.196;2022-07-10T06:41:22;11.40;;;4.10;;
14040;SDS011;7095;51.388;6.196;2022-07-10T06:43:50;10.77;;;3.67;;
14040;SDS011;7095;51.388;6.196;2022-07-10T06:46:19;11.40;;;2.70;;
14040;SDS011;7095;51.388;6.196;2022-07-10T06:48:48;8.00;;;2.93;;
14040;SDS011;7095;51.388;6.196;2022-07-10T06:51:16;9.60;;;3.17;;
14040;SDS011;7095;51.388;6.196;2022-07-10T06:53:45;7.90;;;2.60;;
14040;SDS011;7095;51.388;6.196;2022-07-10T06:56:14;13.20;;;3.00;;
14040;SDS011;7095;51.388;6.196;2022-07-10T06:58:43;11.80;;;3.03;;
14040;SDS011;7095;51.388;6.196;2022-07-10T07:01:11;9.03;;;3.37;;
14040;SDS011;7095;51.388;6.196;2022-07-10T07:03:40;14.73;;;3.57;;
14040;SDS011;7095;51.388;6.196;2022-07-10T07:06:09;13.17;;;3.40;;
14040;SDS011;7095;51.388;6.196;2022-07-10T07:08:39;9.10;;;3.00;;
14040;SDS011;7095;51.388;6.196;2022-07-10T07:11:09;12.23;;;3.27;;
14040;SDS011;7095;51.388;6.196;2022-07-10T07:13:38;9.07;;;2.90;;
14040;SDS011;7095;51.388;6.196;2022-07-10T07:16:07;8.67;;;3.00;;
14040;SDS011;7095;51.388;6.196;2022-07-10T07:18:37;11.73;;;3.17;;
14040;SDS011;7095;51.388;6.196;2022-07-10T07:21:15;13.80;;;3.70;;
14040;SDS011;7095;51.388;6.196;2022-07-10T07:24:03;13.70;;;3.80;;
14040;SDS011;7095;51.388;6.196;2022-07-10T07:26:32;7.03;;;3.03;;
14040;SDS011;7095;51.388;6.196;2022-07-10T07:29:00;10.43;;;3.80;;
14040;SDS011;7095;51.388;6.196;2022-07-10T07:31:32;9.57;;;3.53;;
14040;SDS011;7095;51.388;6.196;2022-07-10T07:34:01;12.77;;;4.10;;
14040;SDS011;7095;51.388;6.196;2022-07-10T07:36:30;5.63;;;2.83;;
14040;SDS011;7095;51.388;6.196;2022-07-10T07:38:58;9.40;;;3.87;;
14040;SDS011;7095;51.388;6.196;2022-07-10T07:41:29;4.87;;;2.70;;
14040;SDS011;7095;51.388;6.196;2022-07-10T07:43:57;10.47;;;3.37;;
14040;SDS011;7095;51.388;6.196;2022-07-10T07:46:26;10.43;;;3.60;;
14040;SDS011;7095;51.388;6.196;2022-07-10T07:48:55;10.90;;;3.40;;
14040;SDS011;7095;51.388;6.196;2022-07-10T07:51:24;11.37;;;3.67;;
14040;SDS011;7095;51.388;6.196;2022-07-10T07:53:53;7.27;;;3.27;;
14040;SDS011;7095;51.388;6.196;2022-07-10T07:56:22;13.27;;;3.60;;
14040;SDS011;7095;51.388;6.196;2022-07-10T07:58:52;8.87;;;3.20;;
14040;SDS011;7095;51.388;6.196;2022-07-10T08:01:20;10.67;;;3.03;;
14040;SDS011;7095;51.388;6.196;2022-07-10T08:03:49;7.20;;;3.13;;
14040;SDS011;7095;51.388;6.196;2022-07-10T08:06:34;11.40;;;2.80;;
14040;SDS011;7095;51.388;6.196;2022-07-10T08:09:04;11.03;;;3.70;;
14040;SDS011;7095;51.388;6.196;2022-07-10T08:11:32;11.53;;;4.07;;
14040;SDS011;7095;51.388;6.196;2022-07-10T08:14:03;16.13;;;3.50;;
14040;SDS011;7095;51.388;6.196;2022-07-10T08:16:31;10.60;;;3.20;;
14040;SDS011;7095;51.388;6.196;2022-07-10T08:19:00;11.73;;;3.40;;
14040;SDS011;7095;51.388;6.196;2022-07-10T08:21:29;14.63;;;3.50;;
14040;SDS011;7095;51.388;6.196;2022-07-10T08:23:59;9.97;;;2.70;;
14040;SDS011;7095;51.388;6.196;2022-07-10T08:26:28;8.80;;;2.63;;
14040;SDS011;7095;51.388;6.196;2022-07-10T08:28:57;8.00;;;2.50;;
14040;SDS011;7095;51.388;6.196;2022-07-10T08:31:27;6.03;;;2.80;;
14040;SDS011;7095;51.388;6.196;2022-07-10T08:33:56;10.00;;;2.70;;
14040;SDS011;7095;51.388;6.196;2022-07-10T08:36:25;4.77;;;2.00;;
14040;SDS011;7095;51.388;6.196;2022-07-10T08:39:14;6.57;;;2.37;;
14040;SDS011;7095;51.388;6.196;2022-07-10T08:41:44;8.60;;;2.60;;
14040;SDS011;7095;51.388;6.196;2022-07-10T08:44:14;8.07;;;2.77;;
14040;SDS011;7095;51.388;6.196;2022-07-10T08:46:44;10.37;;;3.17;;
14040;SDS011;7095;51.388;6.196;2022-07-10T08:49:12;7.63;;;2.07;;
14040;SDS011;7095;51.388;6.196;2022-07-10T08:51:46;8.97;;;2.57;;
14040;SDS011;7095;51.388;6.196;2022-07-10T08:54:22;4.57;;;2.13;;
14040;SDS011;7095;51.388;6.196;2022-07-10T08:56:51;10.53;;;3.43;;
14040;SDS011;7095;51.388;6.196;2022-07-10T08:59:22;11.00;;;2.80;;
14040;SDS011;7095;51.388;6.196;2022-07-10T09:01:58;7.80;;;2.57;;
14040;SDS011;7095;51.388;6.196;2022-07-10T09:04:27;7.60;;;3.10;;
14040;SDS011;7095;51.388;6.196;2022-07-10T09:06:56;11.43;;;2.90;;
14040;SDS011;7095;51.388;6.196;2022-07-10T09:09:25;12.27;;;2.80;;
14040;SDS011;7095;51.388;6.196;2022-07-10T09:11:57;11.53;;;3.33;;
14040;SDS011;7095;51.388;6.196;2022-07-10T09:14:27;14.70;;;2.90;;
14040;SDS011;7095;51.388;6.196;2022-07-10T09:17:02;8.57;;;3.03;;
14040;SDS011;7095;51.388;6.196;2022-07-10T09:19:32;8.83;;;2.73;;
14040;SDS011;7095;51.388;6.196;2022-07-10T09:22:03;10.87;;;2.97;;
14040;SDS011;7095;51.388;6.196;2022-07-10T09:24:37;8.47;;;3.47;;
14040;SDS011;7095;51.388;6.196;2022-07-10T09:27:07;15.07;;;3.50;;
14040;SDS011;7095;51.388;6.196;2022-07-10T09:29:46;10.87;;;3.43;;
14040;SDS011;7095;51.388;6.196;2022-07-10T09:32:18;9.60;;;3.20;;
14040;SDS011;7095;51.388;6.196;2022-07-10T09:34:48;12.10;;;3.33;;
14040;SDS011;7095;51.388;6.196;2022-07-10T09:37:38;12.17;;;3.57;;
14040;SDS011;7095;51.388;6.196;2022-07-10T09:40:08;8.17;;;3.33;;
14040;SDS011;7095;51.388;6.196;2022-07-10T09:42:38;10.93;;;2.80;;
14040;SDS011;7095;51.388;6.196;2022-07-10T09:45:15;6.80;;;2.83;;
14040;SDS011;7095;51.388;6.196;2022-07-10T09:47:53;7.10;;;3.07;;
14040;SDS011;7095;51.388;6.196;2022-07-10T09:50:24;8.33;;;3.20;;
14040;SDS011;7095;51.388;6.196;2022-07-10T09:52:55;5.87;;;2.60;;
14040;SDS011;7095;51.388;6.196;2022-07-10T09:55:25;7.77;;;2.43;;
14040;SDS011;7095;51.388;6.196;2022-07-10T09:57:58;4.17;;;2.07;;
14040;SDS011;7095;51.388;6.196;2022-07-10T10:00:28;7.87;;;2.90;;
14040;SDS011;7095;51.388;6.196;2022-07-10T10:03:00;9.30;;;3.13;;
14040;SDS011;7095;51.388;6.196;2022-07-10T10:05:36;9.47;;;2.60;;
14040;SDS011;7095;51.388;6.196;2022-07-10T10:08:09;5.33;;;2.07;;
14040;SDS011;7095;51.388;6.196;2022-07-10T10:10:44;14.93;;;3.90;;
14040;SDS011;7095;51.388;6.196;2022-07-10T10:13:15;8.07;;;2.80;;
14040;SDS011;7095;51.388;6.196;2022-07-10T10:15:45;7.20;;;2.70;;
14040;SDS011;7095;51.388;6.196;2022-07-10T10:18:18;5.80;;;2.60;;
14040;SDS011;7095;51.388;6.196;2022-07-10T10:20:48;7.33;;;2.87;;
14040;SDS011;7095;51.388;6.196;2022-07-10T10:23:17;9.97;;;2.67;;
14040;SDS011;7095;51.388;6.196;2022-07-10T10:25:47;7.23;;;2.90;;
14040;SDS011;7095;51.388;6.196;2022-07-10T10:28:17;9.30;;;2.93;;
14040;SDS011;7095;51.388;6.196;2022-07-10T10:30:51;4.97;;;2.47;;
14040;SDS011;7095;51.388;6.196;2022-07-10T10:33:43;9.83;;;2.90;;
14040;SDS011;7095;51.388;6.196;2022-07-10T10:39:13;7.97;;;3.00;;
14040;SDS011;7095;51.388;6.196;2022-07-10T10:41:47;8.67;;;3.10;;
14040;SDS011;7095;51.388;6.196;2022-07-10T10:44:23;11.10;;;3.27;;
14040;SDS011;7095;51.388;6.196;2022-07-10T10:46:59;7.23;;;2.80;;
14040;SDS011;7095;51.388;6.196;2022-07-10T10:49:49;9.03;;;2.70;;
14040;SDS011;7095;51.388;6.196;2022-07-10T10:52:19;7.57;;;2.67;;
14040;SDS011;7095;51.388;6.196;2022-07-10T10:55:02;8.70;;;2.93;;
14040;SDS011;7095;51.388;6.196;2022-07-10T10:57:42;8.53;;;2.63;;
14040;SDS011;7095;51.388;6.196;2022-07-10T11:00:31;11.20;;;3.07;;
14040;SDS011;7095;51.388;6.196;2022-07-10T11:03:17;7.40;;;1.97;;
14040;SDS011;7095;51.388;6.196;2022-07-10T11:05:49;5.47;;;2.47;;
14040;SDS011;7095;51.388;6.196;2022-07-10T11:14:06;11.33;;;2.77;;
14040;SDS011;7095;51.388;6.196;2022-07-10T11:16:46;6.43;;;2.67;;
14040;SDS011;7095;51.388;6.196;2022-07-10T11:19:21;10.83;;;2.60;;
14040;SDS011;7095;51.388;6.196;2022-07-10T11:21:55;4.50;;;2.53;;
14040;SDS011;7095;51.388;6.196;2022-07-10T11:24:39;8.87;;;3.00;;
14040;SDS011;7095;51.388;6.196;2022-07-10T11:27:15;5.80;;;2.60;;
14040;SDS011;7095;51.388;6.196;2022-07-10T11:29:56;8.33;;;2.53;;
14040;SDS011;7095;51.388;6.196;2022-07-10T11:32:27;7.27;;;2.60;;
14040;SDS011;7095;51.388;6.196;2022-07-10T11:34:56;6.70;;;2.40;;
14040;SDS011;7095;51.388;6.196;2022-07-10T11:37:28;4.53;;;2.77;;
14040;SDS011;7095;51.388;6.196;2022-07-10T11:40:09;9.07;;;2.80;;
14040;SDS011;7095;51.388;6.196;2022-07-10T11:42:49;11.50;;;2.50;;
14040;SDS011;7095;51.388;6.196;2022-07-10T11:45:25;9.33;;;3.30;;
14040;SDS011;7095;51.388;6.196;2022-07-10T11:47:56;8.37;;;2.60;;
14040;SDS011;7095;51.388;6.196;2022-07-10T11:50:25;3.60;;;2.60;;
14040;SDS011;7095;51.388;6.196;2022-07-10T11:52:56;5.23;;;2.80;;
14040;SDS011;7095;51.388;6.196;2022-07-10T11:55:26;8.53;;;2.50;;
14040;SDS011;7095;51.388;6.196;2022-07-10T11:57:56;8.07;;;2.53;;
14040;SDS011;7095;51.388;6.196;2022-07-10T12:00:25;6.00;;;2.47;;
14040;SDS011;7095;51.388;6.196;2022-07-10T12:02:54;5.23;;;2.43;;
14040;SDS011;7095;51.388;6.196;2022-07-10T12:06:01;4.13;;;2.07;;
14040;SDS011;7095;51.388;6.196;2022-07-10T12:08:42;4.13;;;2.07;;
14040;SDS011;7095;51.388;6.196;2022-07-10T12:11:13;7.00;;;2.57;;
14040;SDS011;7095;51.388;6.196;2022-07-10T12:13:43;10.13;;;3.07;;
14040;SDS011;7095;51.388;6.196;2022-07-10T12:16:12;6.77;;;2.30;;
14040;SDS011;7095;51.388;6.196;2022-07-10T12:18:41;6.30;;;2.40;;
14040;SDS011;7095;51.388;6.196;2022-07-10T12:21:12;6.67;;;2.10;;
14040;SDS011;7095;51.388;6.196;2022-07-10T12:23:46;5.60;;;2.70;;
14040;SDS011;7095;51.388;6.196;2022-07-10T12:26:15;4.67;;;1.83;;
14040;SDS011;7095;51.388;6.196;2022-07-10T12:28:54;5.40;;;2.17;;
14040;SDS011;7095;51.388;6.196;2022-07-10T12:31:26;4.80;;;2.00;;
14040;SDS011;7095;51.388;6.196;2022-07-10T12:33:57;4.20;;;2.27;;
14040;SDS011;7095;51.388;6.196;2022-07-10T12:36:42;3.03;;;1.60;;
14040;SDS011;7095;51.388;6.196;2022-07-10T12:39:14;5.43;;;1.90;;
14040;SDS011;7095;51.388;6.196;2022-07-10T12:41:54;6.73;;;2.30;;
14040;SDS011;7095;51.388;6.196;2022-07-10T12:44:34;7.90;;;1.73;;
14040;SDS011;7095;51.388;6.196;2022-07-10T12:47:05;5.30;;;2.33;;
14040;SDS011;7095;51.388;6.196;2022-07-10T12:49:52;6.03;;;2.00;;
14040;SDS011;7095;51.388;6.196;2022-07-10T12:52:23;6.07;;;2.30;;
14040;SDS011;7095;51.388;6.196;2022-07-10T12:55:11;4.63;;;2.00;;
14040;SDS011;7095;51.388;6.196;2022-07-10T12:57:48;1.97;;;1.73;;
14040;SDS011;7095;51.388;6.196;2022-07-10T13:00:19;4.90;;;2.10;;
14040;SDS011;7095;51.388;6.196;2022-07-10T13:02:49;4.90;;;2.17;;
14040;SDS011;7095;51.388;6.196;2022-07-10T13:05:26;5.53;;;1.83;;
14040;SDS011;7095;51.388;6.196;2022-07-10T13:08:09;4.97;;;2.13;;
14040;SDS011;7095;51.388;6.196;2022-07-10T13:10:43;5.37;;;2.00;;
14040;SDS011;7095;51.388;6.196;2022-07-10T13:13:13;4.07;;;2.53;;
14040;SDS011;7095;51.388;6.196;2022-07-10T13:15:42;6.33;;;2.53;;
14040;SDS011;7095;51.388;6.196;2022-07-10T13:18:13;6.50;;;2.73;;
14040;SDS011;7095;51.388;6.196;2022-07-10T13:20:44;5.00;;;1.83;;
14040;SDS011;7095;51.388;6.196;2022-07-10T13:23:13;5.73;;;2.27;;
14040;SDS011;7095;51.388;6.196;2022-07-10T13:25:50;4.83;;;2.33;;
14040;SDS011;7095;51.388;6.196;2022-07-10T13:28:19;5.40;;;2.60;;
14040;SDS011;7095;51.388;6.196;2022-07-10T13:30:48;4.23;;;2.40;;
14040;SDS011;7095;51.388;6.196;2022-07-10T13:33:17;5.03;;;2.33;;
14040;SDS011;7095;51.388;6.196;2022-07-10T13:35:46;6.53;;;2.70;;
14040;SDS011;7095;51.388;6.196;2022-07-10T13:38:15;7.30;;;2.60;;
14040;SDS011;7095;51.388;6.196;2022-07-10T13:40:45;4.57;;;1.90;;
14040;SDS011;7095;51.388;6.196;2022-07-10T13:43:16;6.77;;;2.80;;
14040;SDS011;7095;51.388;6.196;2022-07-10T13:45:44;2.50;;;1.93;;
14040;SDS011;7095;51.388;6.196;2022-07-10T13:48:14;8.20;;;2.80;;
14040;SDS011;7095;51.388;6.196;2022-07-10T13:50:44;3.93;;;2.07;;
14040;SDS011;7095;51.388;6.196;2022-07-10T13:53:14;5.27;;;2.30;;
14040;SDS011;7095;51.388;6.196;2022-07-10T13:55:44;5.37;;;2.30;;
14040;SDS011;7095;51.388;6.196;2022-07-10T13:58:13;6.97;;;2.30;;
14040;SDS011;7095;51.388;6.196;2022-07-10T14:00:45;6.17;;;2.20;;
14040;SDS011;7095;51.388;6.196;2022-07-10T14:03:14;6.27;;;2.03;;
14040;SDS011;7095;51.388;6.196;2022-07-10T14:05:43;3.47;;;1.70;;
14040;SDS011;7095;51.388;6.196;2022-07-10T14:08:12;4.63;;;1.73;;
14040;SDS011;7095;51.388;6.196;2022-07-10T14:10:41;6.00;;;2.00;;
14040;SDS011;7095;51.388;6.196;2022-07-10T14:13:10;4.87;;;1.83;;
14040;SDS011;7095;51.388;6.196;2022-07-10T14:15:41;6.27;;;2.13;;
14040;SDS011;7095;51.388;6.196;2022-07-10T14:18:11;5.37;;;2.20;;
14040;SDS011;7095;51.388;6.196;2022-07-10T14:20:40;3.07;;;1.90;;
14040;SDS011;7095;51.388;6.196;2022-07-10T14:23:26;5.30;;;2.23;;
14040;SDS011;7095;51.388;6.196;2022-07-10T14:25:55;4.90;;;2.37;;
14040;SDS011;7095;51.388;6.196;2022-07-10T14:28:27;5.97;;;1.97;;
14040;SDS011;7095;51.388;6.196;2022-07-10T14:30:57;2.90;;;2.07;;
14040;SDS011;7095;51.388;6.196;2022-07-10T14:33:30;6.40;;;2.30;;
14040;SDS011;7095;51.388;6.196;2022-07-10T14:35:59;4.73;;;1.80;;
14040;SDS011;7095;51.388;6.196;2022-07-10T14:38:28;4.93;;;2.23;;
14040;SDS011;7095;51.388;6.196;2022-07-10T14:40:57;6.17;;;2.13;;
14040;SDS011;7095;51.388;6.196;2022-07-10T14:43:25;4.60;;;1.83;;
14040;SDS011;7095;51.388;6.196;2022-07-10T14:45:54;3.80;;;1.90;;
14040;SDS011;7095;51.388;6.196;2022-07-10T14:48:30;6.00;;;2.20;;
14040;SDS011;7095;51.388;6.196;2022-07-10T14:51:00;5.83;;;2.70;;
14040;SDS011;7095;51.388;6.196;2022-07-10T14:53:28;6.33;;;1.93;;
14040;SDS011;7095;51.388;6.196;2022-07-10T14:56:01;7.90;;;2.40;;
14040;SDS011;7095;51.388;6.196;2022-07-10T14:58:31;6.80;;;2.27;;
14040;SDS011;7095;51.388;6.196;2022-07-10T15:01:20;5.53;;;2.33;;
14040;SDS011;7095;51.388;6.196;2022-07-10T15:03:51;6.80;;;2.20;;
14040;SDS011;7095;51.388;6.196;2022-07-10T15:06:22;4.20;;;2.20;;
14040;SDS011;7095;51.388;6.196;2022-07-10T15:08:51;3.60;;;1.97;;
14040;SDS011;7095;51.388;6.196;2022-07-10T15:11:20;5.53;;;2.10;;
14040;SDS011;7095;51.388;6.196;2022-07-10T15:13:49;5.63;;;2.00;;
14040;SDS011;7095;51.388;6.196;2022-07-10T15:16:25;5.23;;;2.27;;
14040;SDS011;7095;51.388;6.196;2022-07-10T15:18:56;4.20;;;1.83;;
14040;SDS011;7095;51.388;6.196;2022-07-10T15:21:25;2.53;;;1.90;;
14040;SDS011;7095;51.388;6.196;2022-07-10T15:23:56;6.87;;;2.03;;
14040;SDS011;7095;51.388;6.196;2022-07-10T15:26:24;3.50;;;1.97;;
14040;SDS011;7095;51.388;6.196;2022-07-10T15:28:53;6.43;;;1.50;;